createdAt,value
2022-07-31T00:00:25.836Z,13.32
2022-07-31T00:02:52.826Z,13.55
2022-07-31T00:05:19.918Z,15.73
2022-07-31T00:07:46.867Z,13.73
2022-07-31T00:10:13.916Z,14.25
2022-07-31T00:12:41.263Z,13.57
2022-07-31T00:15:10.374Z,13.48
2022-07-31T00:17:44.607Z,17.75
2022-07-31T00:20:13.746Z,14.40
2022-07-31T00:22:44.916Z,13.40
2022-07-31T00:25:14.227Z,12.82
2022-07-31T00:27:42.137Z,14.05
2022-07-31T00:30:13.156Z,14.85
2022-07-31T00:32:42.206Z,13.93
2022-07-31T00:35:10.319Z,14.00
2022-07-31T00:37:40.341Z,13.63
2022-07-31T00:40:10.627Z,14.57
2022-07-31T00:42:37.807Z,12.68
2022-07-31T00:45:05.736Z,13.05
2022-07-31T00:47:32.946Z,12.90
2022-07-31T00:50:00.747Z,17.88
2022-07-31T00:52:27.806Z,15.35
2022-07-31T00:54:54.825Z,12.88
2022-07-31T00:57:21.766Z,13.18
2022-07-31T00:59:48.740Z,12.77
2022-07-31T01:02:15.700Z,13.93
2022-07-31T01:04:44.599Z,12.55
2022-07-31T01:07:12.958Z,13.35
2022-07-31T01:09:39.987Z,13.70
2022-07-31T01:12:22.860Z,12.82
2022-07-31T01:14:57.447Z,12.73
2022-07-31T01:17:27.865Z,11.55
2022-07-31T01:19:55.136Z,11.52
2022-07-31T01:22:56.467Z,11.88
2022-07-31T01:25:41.602Z,11.02
2022-07-31T01:28:22.667Z,13.20
2022-07-31T01:31:10.660Z,10.70
2022-07-31T01:33:57.525Z,15.23
2022-07-31T01:36:29.206Z,11.10
2022-07-31T01:38:57.577Z,12.02
2022-07-31T01:41:30.465Z,11.00
2022-07-31T01:43:59.159Z,11.43
2022-07-31T01:46:29.285Z,9.73
2022-07-31T01:48:58.106Z,10.98
2022-07-31T01:51:27.760Z,11.27
2022-07-31T01:53:56.361Z,10.48
2022-07-31T01:56:24.678Z,11.02
2022-07-31T01:58:52.837Z,12.43
2022-07-31T02:01:24.170Z,11.77
2022-07-31T02:03:56.274Z,13.68
2022-07-31T02:06:25.211Z,11.20
2022-07-31T02:08:55.618Z,12.48
2022-07-31T02:11:23.593Z,13.32
2022-07-31T02:13:52.362Z,12.70
2022-07-31T02:16:20.561Z,12.40
2022-07-31T02:18:54.190Z,12.98
2022-07-31T02:21:22.029Z,13.02
2022-07-31T02:23:49.326Z,10.68
2022-07-31T02:26:17.720Z,10.70
2022-07-31T02:28:46.849Z,11.57
2022-07-31T02:31:17.190Z,10.13
2022-07-31T02:33:47.062Z,10.07
2022-07-31T02:36:15.988Z,10.48
2022-07-31T02:38:44.561Z,11.27
2022-07-31T02:41:13.068Z,11.10
2022-07-31T02:43:40.800Z,10.70
2022-07-31T02:46:09.871Z,10.68
2022-07-31T02:48:37.578Z,11.63
2022-07-31T02:51:05.679Z,11.40
2022-07-31T02:53:33.782Z,11.63
2022-07-31T02:56:04.639Z,12.40
2022-07-31T02:58:31.772Z,12.80
2022-07-31T03:01:03.743Z,13.63
2022-07-31T03:03:30.767Z,11.32
2022-07-31T03:05:58.493Z,15.23
2022-07-31T03:08:25.390Z,14.95
2022-07-31T03:10:52.319Z,14.23
2022-07-31T03:13:21.157Z,12.52
2022-07-31T03:15:50.810Z,13.68
2022-07-31T03:18:22.158Z,11.10
2022-07-31T03:20:53.308Z,11.13
2022-07-31T03:23:23.143Z,12.50
2022-07-31T03:25:51.183Z,10.98
2022-07-31T03:28:20.160Z,11.82
2022-07-31T03:30:55.152Z,10.98
2022-07-31T03:33:24.052Z,11.70
2022-07-31T03:35:51.619Z,10.23
2022-07-31T03:38:34.872Z,10.73
2022-07-31T03:41:06.060Z,12.57
2022-07-31T03:43:47.020Z,11.63
2022-07-31T03:46:17.690Z,13.82
2022-07-31T03:48:45.300Z,12.18
2022-07-31T03:51:13.559Z,10.30
2022-07-31T03:53:41.647Z,9.98
2022-07-31T03:56:10.290Z,13.27
2022-07-31T03:58:38.743Z,10.55
2022-07-31T04:01:08.395Z,10.07
2022-07-31T04:03:39.049Z,12.18
2022-07-31T04:06:06.132Z,13.50
2022-07-31T04:08:34.135Z,10.70
2022-07-31T04:11:01.091Z,9.77
2022-07-31T04:13:28.657Z,11.40
2022-07-31T04:15:55.609Z,10.35
2022-07-31T04:18:22.548Z,10.65
2022-07-31T04:20:49.739Z,11.20
2022-07-31T04:23:17.139Z,10.77
2022-07-31T04:25:44.223Z,10.40
2022-07-31T04:28:11.314Z,11.10
2022-07-31T04:30:38.469Z,11.63
2022-07-31T04:33:05.754Z,10.98
2022-07-31T04:35:32.689Z,10.93
2022-07-31T04:37:59.853Z,10.88
2022-07-31T04:40:27.729Z,10.63
2022-07-31T04:42:55.492Z,9.50
2022-07-31T04:45:22.483Z,17.67
2022-07-31T04:47:49.409Z,9.32
2022-07-31T04:50:16.483Z,10.60
2022-07-31T04:52:43.460Z,11.07
2022-07-31T04:55:10.588Z,9.77
2022-07-31T04:57:37.542Z,10.32
2022-07-31T05:03:00.277Z,10.23
2022-07-31T05:05:27.392Z,11.90
2022-07-31T05:07:54.662Z,10.57
2022-07-31T05:10:39.992Z,10.88
2022-07-31T05:13:07.083Z,11.50
2022-07-31T05:15:34.319Z,10.73
2022-07-31T05:18:01.632Z,11.52
2022-07-31T05:20:28.747Z,10.30
2022-07-31T05:22:55.902Z,11.13
2022-07-31T05:25:23.032Z,12.07
2022-07-31T05:27:50.239Z,10.85
2022-07-31T05:30:17.533Z,11.32
2022-07-31T05:32:58.744Z,12.93
2022-07-31T05:35:26.061Z,12.52
2022-07-31T05:37:53.373Z,13.48
2022-07-31T05:40:20.579Z,12.32
2022-07-31T05:42:48.305Z,14.00
2022-07-31T05:45:16.152Z,14.30
2022-07-31T05:47:43.439Z,11.77
2022-07-31T05:50:12.102Z,12.98
2022-07-31T05:52:40.078Z,12.90
2022-07-31T05:55:07.579Z,13.95
2022-07-31T05:57:34.887Z,13.40
2022-07-31T06:00:04.067Z,12.68
2022-07-31T06:02:31.521Z,13.93
2022-07-31T06:05:01.157Z,13.55
2022-07-31T06:07:28.939Z,13.23
2022-07-31T06:09:56.169Z,13.93
2022-07-31T06:12:23.396Z,12.73
2022-07-31T06:14:53.362Z,13.13
2022-07-31T06:17:20.623Z,13.85
2022-07-31T06:19:49.757Z,13.52
2022-07-31T06:22:16.859Z,13.10
2022-07-31T06:24:44.001Z,13.05
2022-07-31T06:27:17.030Z,13.40
2022-07-31T06:29:56.947Z,11.98
2022-07-31T06:32:24.597Z,12.50
2022-07-31T06:34:51.664Z,12.32
2022-07-31T06:37:20.082Z,13.05
2022-07-31T06:39:54.757Z,13.18
2022-07-31T06:42:24.790Z,11.57
2022-07-31T06:44:53.123Z,13.00
2022-07-31T06:47:23.549Z,12.32
2022-07-31T06:49:50.783Z,13.20
2022-07-31T06:52:18.467Z,13.90
2022-07-31T06:54:45.953Z,12.65
2022-07-31T06:57:13.107Z,13.32
2022-07-31T06:59:40.903Z,12.82
2022-07-31T07:02:09.142Z,12.32
2022-07-31T07:04:58.402Z,12.98
2022-07-31T07:07:23.613Z,12.60
2022-07-31T07:09:50.849Z,12.75
2022-07-31T07:12:17.962Z,11.07
2022-07-31T07:14:45.083Z,12.10
2022-07-31T07:17:12.228Z,10.70
2022-07-31T07:19:42.713Z,13.32
2022-07-31T07:22:09.848Z,12.43
2022-07-31T07:24:36.919Z,10.70
2022-07-31T07:27:05.629Z,11.13
2022-07-31T07:29:32.999Z,11.18
2022-07-31T07:32:00.203Z,11.15
2022-07-31T07:34:27.847Z,10.27
2022-07-31T07:36:55.569Z,11.48
2022-07-31T07:39:23.507Z,11.10
2022-07-31T07:41:50.832Z,11.13
2022-07-31T07:44:18.212Z,9.40
2022-07-31T07:46:46.526Z,9.75
2022-07-31T07:49:13.883Z,9.18
2022-07-31T07:51:59.905Z,9.75
2022-07-31T07:54:27.632Z,9.88
2022-07-31T07:56:55.400Z,8.00
2022-07-31T07:59:22.731Z,8.43
2022-07-31T08:01:49.871Z,7.70
2022-07-31T08:04:16.919Z,8.02
2022-07-31T08:06:44.158Z,7.80
2022-07-31T08:09:11.398Z,8.27
2022-07-31T08:11:38.623Z,7.53
2022-07-31T08:14:07.185Z,7.47
2022-07-31T08:16:36.664Z,6.63
2022-07-31T08:19:04.178Z,6.63
2022-07-31T08:21:31.594Z,6.43
2022-07-31T08:23:58.813Z,6.50
2022-07-31T08:26:28.074Z,6.75
2022-07-31T08:28:55.978Z,6.07
2022-07-31T08:31:24.783Z,4.72
2022-07-31T08:33:53.302Z,6.15
2022-07-31T08:36:20.839Z,5.75
2022-07-31T08:38:48.358Z,6.20
2022-07-31T08:41:15.799Z,6.75
2022-07-31T08:44:00.863Z,5.85
2022-07-31T08:46:40.759Z,7.90
2022-07-31T08:49:12.774Z,5.75
2022-07-31T08:51:50.512Z,6.03
2022-07-31T08:54:21.227Z,6.43
2022-07-31T08:56:52.819Z,5.80
2022-07-31T08:59:20.868Z,6.05
2022-07-31T09:01:48.579Z,7.03
2022-07-31T09:04:18.690Z,6.85
2022-07-31T09:09:12.849Z,6.47
2022-07-31T09:11:50.400Z,6.68
2022-07-31T09:14:35.729Z,6.60
2022-07-31T09:17:05.115Z,7.40
2022-07-31T09:19:53.147Z,7.10
2022-07-31T09:22:23.701Z,6.13
2022-07-31T09:24:51.521Z,6.30
2022-07-31T09:27:19.210Z,6.72
2022-07-31T09:29:51.209Z,7.78
2022-07-31T09:32:20.583Z,6.75
2022-07-31T09:34:49.697Z,6.60
2022-07-31T09:37:19.032Z,7.72
2022-07-31T09:39:52.791Z,7.07
2022-07-31T09:42:24.247Z,7.20
2022-07-31T09:44:52.292Z,7.53
2022-07-31T09:47:31.602Z,7.25
2022-07-31T09:50:02.421Z,7.30
2022-07-31T09:52:32.072Z,6.75
2022-07-31T09:55:15.015Z,6.80
2022-07-31T09:57:55.617Z,6.78
2022-07-31T10:00:24.159Z,9.43
2022-07-31T10:02:57.554Z,6.78
2022-07-31T10:05:32.396Z,6.50
2022-07-31T10:08:03.041Z,6.43
2022-07-31T10:10:38.544Z,5.68
2022-07-31T10:13:15.279Z,5.50
2022-07-31T10:15:56.947Z,6.75
2022-07-31T10:18:35.623Z,5.93
2022-07-31T10:21:06.824Z,5.75
2022-07-31T10:23:40.116Z,5.30
2022-07-31T10:26:08.142Z,6.10
2022-07-31T10:28:39.529Z,5.97
2022-07-31T10:31:06.857Z,5.63
2022-07-31T10:33:44.149Z,4.78
2022-07-31T10:36:22.869Z,5.00
2022-07-31T10:39:10.578Z,4.97
2022-07-31T10:41:59.453Z,5.57
2022-07-31T10:44:46.607Z,5.03
2022-07-31T10:47:17.824Z,4.80
2022-07-31T10:49:50.425Z,5.05
2022-07-31T10:52:36.508Z,5.60
2022-07-31T10:55:16.581Z,5.15
2022-07-31T10:57:56.290Z,4.95
2022-07-31T11:00:30.073Z,6.55
2022-07-31T11:02:58.701Z,6.30
2022-07-31T11:05:28.402Z,4.95
2022-07-31T11:08:06.642Z,4.80
2022-07-31T11:10:35.772Z,6.38
2022-07-31T11:13:09.482Z,5.30
2022-07-31T11:15:37.933Z,5.30
2022-07-31T11:18:28.903Z,4.40
2022-07-31T11:21:13.709Z,3.88
2022-07-31T11:24:01.830Z,4.50
2022-07-31T11:26:40.919Z,3.85
2022-07-31T11:29:59.452Z,4.57
2022-07-31T11:32:15.368Z,4.30
2022-07-31T11:34:50.131Z,5.50
2022-07-31T11:37:24.140Z,4.03
2022-07-31T11:39:53.872Z,3.97
2022-07-31T11:42:26.311Z,7.68
2022-07-31T11:45:08.449Z,4.57
2022-07-31T11:48:11.806Z,3.95
2022-07-31T11:50:31.211Z,4.20
2022-07-31T11:53:07.424Z,4.00
2022-07-31T11:55:58.372Z,5.50
2022-07-31T11:58:30.532Z,5.32
2022-07-31T12:01:00.095Z,3.70
2022-07-31T12:03:36.888Z,5.10
2022-07-31T12:06:05.791Z,4.10
2022-07-31T12:08:36.176Z,4.28
2022-07-31T12:11:05.869Z,2.90
2022-07-31T12:13:33.223Z,3.10
2022-07-31T12:16:10.182Z,4.18
2022-07-31T12:21:41.941Z,3.95
2022-07-31T12:24:17.150Z,5.13
2022-07-31T12:26:56.844Z,2.58
2022-07-31T12:29:35.590Z,3.25
2022-07-31T12:32:10.761Z,3.25
2022-07-31T12:34:40.988Z,3.13
2022-07-31T12:45:48.452Z,3.15
2022-07-31T12:48:18.492Z,2.90
2022-07-31T12:51:08.358Z,3.75
2022-07-31T12:53:38.421Z,5.25
2022-07-31T12:56:12.401Z,3.67
2022-07-31T12:58:41.292Z,3.38
2022-07-31T13:01:08.434Z,3.05
2022-07-31T13:03:38.799Z,3.17
2022-07-31T13:06:12.622Z,5.43
2022-07-31T13:08:39.877Z,4.32
2022-07-31T13:11:06.981Z,4.55
2022-07-31T13:13:34.603Z,2.95
2022-07-31T13:16:01.561Z,4.18
2022-07-31T13:18:30.707Z,2.92
2022-07-31T13:20:57.705Z,3.58
2022-07-31T13:23:24.802Z,3.03
2022-07-31T13:25:51.810Z,4.00
2022-07-31T13:28:18.837Z,3.22
2022-07-31T13:30:46.417Z,6.32
2022-07-31T13:33:13.469Z,3.60
2022-07-31T13:35:40.602Z,4.65
2022-07-31T13:38:08.378Z,3.35
2022-07-31T13:40:53.939Z,4.40
2022-07-31T13:43:21.018Z,3.33
2022-07-31T13:45:50.630Z,3.78
2022-07-31T13:48:17.762Z,3.35
2022-07-31T13:50:45.013Z,4.95
2022-07-31T13:53:12.049Z,4.00
2022-07-31T13:55:39.521Z,3.88
2022-07-31T13:58:08.738Z,4.85
2022-07-31T14:00:36.186Z,4.25
2022-07-31T14:03:03.239Z,3.53
2022-07-31T14:05:30.430Z,4.15
2022-07-31T14:08:30.635Z,3.58
2022-07-31T14:10:53.231Z,5.57
2022-07-31T14:13:20.784Z,5.28
2022-07-31T14:15:48.486Z,3.58
2022-07-31T14:18:15.857Z,3.28
2022-07-31T14:20:42.956Z,4.15
2022-07-31T14:23:10.435Z,4.30
2022-07-31T14:25:38.615Z,4.38
2022-07-31T14:28:07.871Z,3.42
2022-07-31T14:30:35.304Z,3.30
2022-07-31T14:33:02.401Z,4.60
2022-07-31T14:35:29.399Z,4.25
2022-07-31T14:37:56.558Z,5.13
2022-07-31T14:40:23.737Z,4.95
2022-07-31T14:42:50.830Z,3.17
2022-07-31T14:45:17.853Z,4.50
2022-07-31T14:47:46.568Z,3.20
2022-07-31T14:50:19.245Z,4.18
2022-07-31T14:52:46.849Z,3.92
2022-07-31T14:55:14.060Z,6.75
2022-07-31T14:57:41.199Z,5.70
2022-07-31T15:00:15.387Z,5.75
2022-07-31T15:02:43.978Z,4.18
2022-07-31T15:06:48.749Z,4.00
2022-07-31T15:08:00.032Z,4.35
2022-07-31T15:10:27.562Z,4.55
2022-07-31T15:12:54.569Z,3.90
2022-07-31T15:15:21.690Z,3.50
2022-07-31T15:17:48.679Z,5.05
2022-07-31T15:20:15.983Z,3.83
2022-07-31T15:22:42.927Z,4.60
2022-07-31T15:25:10.489Z,3.95
2022-07-31T15:27:37.762Z,5.53
2022-07-31T15:30:07.765Z,3.33
2022-07-31T15:32:37.308Z,4.28
2022-07-31T15:35:06.481Z,5.25
2022-07-31T15:37:35.725Z,3.58
2022-07-31T15:40:07.671Z,3.90
2022-07-31T15:42:38.513Z,5.65
2022-07-31T15:45:06.918Z,4.90
2022-07-31T15:47:34.018Z,5.68
2022-07-31T15:50:01.056Z,5.10
2022-07-31T15:52:28.019Z,5.35
2022-07-31T15:54:55.075Z,4.68
2022-07-31T15:57:22.923Z,3.95
2022-07-31T15:59:51.378Z,4.93
2022-07-31T16:02:18.573Z,6.80
2022-07-31T16:04:51.708Z,3.60
2022-07-31T16:08:30.982Z,3.88
2022-07-31T16:10:15.866Z,3.60
2022-07-31T16:12:47.615Z,3.88
2022-07-31T16:15:16.113Z,4.03
2022-07-31T16:17:43.824Z,3.72
2022-07-31T16:20:20.809Z,4.70
2022-07-31T16:25:34.978Z,3.72
2022-07-31T16:28:03.857Z,3.80
2022-07-31T16:30:31.313Z,3.72
2022-07-31T16:32:58.282Z,4.80
2022-07-31T16:35:26.510Z,4.72
2022-07-31T16:37:54.547Z,3.80
2022-07-31T16:40:30.923Z,3.30
2022-07-31T16:43:01.651Z,7.18
2022-07-31T16:45:30.172Z,3.25
2022-07-31T16:47:57.946Z,4.10
2022-07-31T16:50:25.495Z,4.78
2022-07-31T16:52:54.866Z,4.53
2022-07-31T16:55:51.741Z,4.53
2022-07-31T16:58:11.811Z,3.50
2022-07-31T17:00:39.680Z,4.38
2022-07-31T17:03:06.831Z,4.88
2022-07-31T17:05:53.979Z,3.40
2022-07-31T17:08:21.142Z,4.72
2022-07-31T17:10:51.275Z,3.90
2022-07-31T17:13:21.693Z,7.35
2022-07-31T17:15:48.639Z,3.58
2022-07-31T17:18:15.622Z,3.83
2022-07-31T17:20:47.225Z,4.18
2022-07-31T17:23:14.887Z,5.00
2022-07-31T17:25:43.149Z,4.18
2022-07-31T17:28:14.979Z,4.85
2022-07-31T17:30:42.632Z,3.95
2022-07-31T17:33:09.718Z,4.20
2022-07-31T17:35:36.867Z,25.58
2022-07-31T17:38:04.286Z,6.15
2022-07-31T17:40:43.586Z,14.77
2022-07-31T17:43:11.211Z,5.53
2022-07-31T17:46:05.563Z,4.78
2022-07-31T17:48:28.066Z,5.40
2022-07-31T17:50:55.020Z,4.68
2022-07-31T17:53:22.187Z,4.13
2022-07-31T17:55:52.418Z,5.10
2022-07-31T17:58:20.411Z,3.58
2022-07-31T18:00:51.051Z,4.93
2022-07-31T18:03:32.256Z,6.53
2022-07-31T18:06:05.442Z,4.75
2022-07-31T18:08:32.811Z,5.50
2022-07-31T18:10:59.881Z,4.95
2022-07-31T18:13:26.822Z,4.68
2022-07-31T18:15:53.918Z,5.32
2022-07-31T18:18:23.200Z,4.65
2022-07-31T18:20:50.199Z,4.57
2022-07-31T18:23:17.142Z,5.00
2022-07-31T18:25:44.741Z,5.28
2022-07-31T18:28:11.937Z,5.70
2022-07-31T18:30:41.200Z,8.23
2022-07-31T18:33:08.267Z,7.13
2022-07-31T18:35:35.218Z,7.53
2022-07-31T18:38:02.282Z,7.97
2022-07-31T18:40:29.418Z,6.85
2022-07-31T18:42:56.539Z,5.78
2022-07-31T18:45:25.091Z,11.00
2022-07-31T18:47:54.072Z,14.23
2022-07-31T18:51:01.574Z,5.68
2022-07-31T18:53:08.138Z,5.25
2022-07-31T18:55:35.197Z,11.23
2022-07-31T18:58:02.418Z,17.15
2022-07-31T19:00:31.981Z,6.55
2022-07-31T19:02:59.362Z,5.78
2022-07-31T19:05:27.184Z,8.75
2022-07-31T19:07:54.481Z,5.63
2022-07-31T19:10:29.646Z,5.95
2022-07-31T19:12:59.857Z,5.53
2022-07-31T19:15:27.030Z,7.05
2022-07-31T19:17:54.844Z,7.90
2022-07-31T19:20:40.425Z,12.27
2022-07-31T19:23:15.307Z,10.90
2022-07-31T19:25:59.487Z,8.10
2022-07-31T19:28:31.318Z,5.82
2022-07-31T19:30:58.791Z,6.85
2022-07-31T19:33:26.297Z,8.05
2022-07-31T19:35:58.859Z,6.90
2022-07-31T19:38:28.947Z,8.07
2022-07-31T19:40:56.084Z,13.15
2022-07-31T19:43:23.557Z,7.63
2022-07-31T19:45:58.778Z,8.43
2022-07-31T19:48:38.478Z,13.02
2022-07-31T19:51:06.262Z,6.00
2022-07-31T19:53:33.414Z,6.70
2022-07-31T19:56:06.449Z,9.88
2022-07-31T19:58:37.578Z,13.73
2022-07-31T20:01:06.213Z,6.93
2022-07-31T20:03:33.783Z,7.60
2022-07-31T20:06:02.258Z,14.77
2022-07-31T20:08:33.308Z,9.40
2022-07-31T20:11:04.161Z,7.45
2022-07-31T20:13:37.958Z,6.07
2022-07-31T20:16:15.060Z,8.30
2022-07-31T20:18:43.620Z,11.38
2022-07-31T20:21:11.384Z,7.10
2022-07-31T20:23:42.018Z,7.03
2022-07-31T20:26:12.022Z,6.03
2022-07-31T20:28:40.627Z,6.47
2022-07-31T20:31:18.449Z,7.47
2022-07-31T20:33:57.424Z,7.05
2022-07-31T20:36:26.427Z,6.38
2022-07-31T20:38:53.881Z,14.65
2022-07-31T20:41:21.306Z,7.07
2022-07-31T20:43:48.368Z,5.38
2022-07-31T20:46:17.108Z,12.02
2022-07-31T20:48:45.519Z,8.02
2022-07-31T20:51:19.431Z,8.52
2022-07-31T20:53:51.030Z,12.80
2022-07-31T20:56:18.018Z,6.13
2022-07-31T20:58:51.195Z,6.65
2022-07-31T21:01:20.410Z,6.63
2022-07-31T21:03:48.098Z,5.47
2022-07-31T21:06:15.248Z,5.57
2022-07-31T21:08:42.398Z,5.82
2022-07-31T21:11:12.677Z,6.43
2022-07-31T21:13:40.290Z,6.07
2022-07-31T21:16:07.475Z,7.15
2022-07-31T21:18:37.080Z,6.20
2022-07-31T21:21:06.256Z,5.22
2022-07-31T21:23:33.307Z,6.93
2022-07-31T21:26:00.531Z,5.70
2022-07-31T21:28:28.399Z,6.07
2022-07-31T21:30:56.602Z,5.25
2022-07-31T21:33:25.758Z,5.63
2022-07-31T21:35:53.456Z,5.43
2022-07-31T21:38:20.839Z,7.13
2022-07-31T21:40:48.858Z,5.45
2022-07-31T21:43:18.613Z,5.47
2022-07-31T21:45:55.577Z,5.35
2022-07-31T21:48:27.109Z,5.65
2022-07-31T21:50:55.213Z,6.90
2022-07-31T21:53:25.283Z,5.80
2022-07-31T21:55:52.756Z,6.45
2022-07-31T21:58:19.883Z,6.55
2022-07-31T22:00:48.002Z,5.93
2022-07-31T22:03:15.260Z,7.10
2022-07-31T22:06:00.953Z,5.80
2022-07-31T22:08:28.039Z,6.82
2022-07-31T22:10:55.829Z,6.20
2022-07-31T22:13:22.830Z,6.50
2022-07-31T22:15:51.459Z,6.60
2022-07-31T22:18:29.205Z,6.07
2022-07-31T22:20:56.860Z,7.47
2022-07-31T22:23:24.925Z,8.73
2022-07-31T22:25:52.079Z,7.28
2022-07-31T22:28:20.843Z,6.05
2022-07-31T22:30:48.655Z,6.30
2022-07-31T22:33:15.944Z,6.50
2022-07-31T22:35:43.391Z,6.07
2022-07-31T22:38:13.219Z,6.03
2022-07-31T22:40:44.099Z,6.30
2022-07-31T22:44:12.383Z,6.00
2022-07-31T22:46:01.573Z,6.15
2022-07-31T22:48:29.803Z,7.75
2022-07-31T22:50:57.052Z,6.28
2022-07-31T22:53:24.812Z,6.50
2022-07-31T22:55:53.319Z,5.80
2022-07-31T22:58:23.200Z,7.10
2022-07-31T23:00:51.193Z,6.55
2022-07-31T23:03:18.200Z,5.88
2022-07-31T23:06:02.492Z,7.95
2022-07-31T23:08:32.248Z,7.15
2022-07-31T23:11:00.210Z,7.10
2022-07-31T23:13:27.181Z,7.00
2022-07-31T23:15:54.129Z,7.00
2022-07-31T23:18:21.150Z,7.93
2022-07-31T23:20:48.106Z,8.02
2022-07-31T23:23:15.029Z,7.18
2022-07-31T23:25:42.032Z,34.53
2022-07-31T23:28:09.000Z,7.32
2022-07-31T23:30:35.923Z,9.05
2022-07-31T23:33:03.348Z,7.70
2022-07-31T23:35:30.330Z,7.97
2022-07-31T23:37:57.229Z,8.73
2022-07-31T23:40:24.322Z,8.73
2022-07-31T23:42:51.374Z,9.50
2022-07-31T23:45:18.291Z,9.05
2022-07-31T23:47:47.010Z,9.80
2022-07-31T23:50:15.149Z,10.07
2022-07-31T23:52:45.340Z,10.32
2022-07-31T23:55:13.227Z,9.82
2022-07-31T23:57:40.934Z,10.25
